sensor_id;sensor_type;location;lat;lon;timestamp;pressure;altitude;pressure_sealevel;temperature;humidity
28683;BME280;15862;43.062;25.626;2022-11-18T00:01:19;99069.34;;;8.11;100.00
28683;BME280;15862;43.062;25.626;2022-11-18T00:03:45;99077.06;;;8.22;100.00
28683;BME280;15862;43.062;25.626;2022-11-18T00:06:13;99075.09;;;8.25;100.00
28683;BME280;15862;43.062;25.626;2022-11-18T00:08:40;99065.47;;;8.05;100.00
28683;BME280;15862;43.062;25.626;2022-11-18T00:11:07;99074.50;;;8.11;100.00
28683;BME280;15862;43.062;25.626;2022-11-18T00:13:33;99081.41;;;8.10;100.00
28683;BME280;15862;43.062;25.626;2022-11-18T00:16:17;99080.97;;;8.16;100.00
28683;BME280;15862;43.062;25.626;2022-11-18T00:18:43;99083.84;;;8.23;100.00
28683;BME280;15862;43.062;25.626;2022-11-18T00:21:10;99088.78;;;8.15;100.00
28683;BME280;15862;43.062;25.626;2022-11-18T00:23:37;99077.63;;;8.03;100.00
28683;BME280;15862;43.062;25.626;2022-11-18T00:26:06;99072.97;;;7.97;100.00
28683;BME280;15862;43.062;25.626;2022-11-18T00:28:32;99086.28;;;7.91;100.00
28683;BME280;15862;43.062;25.626;2022-11-18T00:31:05;99083.59;;;7.82;100.00
28683;BME280;15862;43.062;25.626;2022-11-18T00:33:31;99079.59;;;7.78;100.00
28683;BME280;15862;43.062;25.626;2022-11-18T00:35:57;99078.94;;;7.76;100.00
28683;BME280;15862;43.062;25.626;2022-11-18T00:38:24;99078.09;;;7.75;100.00
28683;BME280;15862;43.062;25.626;2022-11-18T00:41:04;99086.63;;;7.76;100.00
28683;BME280;15862;43.062;25.626;2022-11-18T00:43:30;99085.22;;;7.72;100.00
28683;BME280;15862;43.062;25.626;2022-11-18T00:45:56;99077.97;;;7.66;100.00
28683;BME280;15862;43.062;25.626;2022-11-18T00:48:22;99086.41;;;7.68;100.00
28683;BME280;15862;43.062;25.626;2022-11-18T00:50:49;99086.28;;;7.58;100.00
28683;BME280;15862;43.062;25.626;2022-11-18T00:53:16;99080.88;;;7.51;100.00
28683;BME280;15862;43.062;25.626;2022-11-18T00:55:42;99078.66;;;7.46;100.00
28683;BME280;15862;43.062;25.626;2022-11-18T00:58:07;99078.78;;;7.45;100.00
28683;BME280;15862;43.062;25.626;2022-11-18T01:00:34;99074.66;;;7.42;100.00
28683;BME280;15862;43.062;25.626;2022-11-18T01:02:59;99069.38;;;7.33;100.00
28683;BME280;15862;43.062;25.626;2022-11-18T01:05:25;99073.72;;;7.32;100.00
28683;BME280;15862;43.062;25.626;2022-11-18T01:07:50;99066.09;;;7.31;100.00
28683;BME280;15862;43.062;25.626;2022-11-18T01:10:16;99070.22;;;7.33;100.00
28683;BME280;15862;43.062;25.626;2022-11-18T01:12:41;99074.38;;;7.23;100.00
28683;BME280;15862;43.062;25.626;2022-11-18T01:15:25;99068.19;;;7.15;100.00
28683;BME280;15862;43.062;25.626;2022-11-18T01:17:51;99063.59;;;7.07;100.00
28683;BME280;15862;43.062;25.626;2022-11-18T01:20:16;99067.66;;;7.10;100.00
28683;BME280;15862;43.062;25.626;2022-11-18T01:22:42;99069.16;;;7.01;100.00
28683;BME280;15862;43.062;25.626;2022-11-18T01:25:07;99068.41;;;6.88;100.00
28683;BME280;15862;43.062;25.626;2022-11-18T01:27:33;99061.97;;;6.83;100.00
28683;BME280;15862;43.062;25.626;2022-11-18T01:29:58;99054.84;;;6.76;100.00
28683;BME280;15862;43.062;25.626;2022-11-18T01:32:24;99057.88;;;6.81;100.00
28683;BME280;15862;43.062;25.626;2022-11-18T01:34:49;99050.63;;;6.75;100.00
28683;BME280;15862;43.062;25.626;2022-11-18T01:37:14;99044.91;;;6.71;100.00
28683;BME280;15862;43.062;25.626;2022-11-18T01:39:40;99029.56;;;6.59;100.00
28683;BME280;15862;43.062;25.626;2022-11-18T01:42:14;99042.25;;;6.60;100.00
28683;BME280;15862;43.062;25.626;2022-11-18T01:45:06;99043.78;;;6.63;100.00
28683;BME280;15862;43.062;25.626;2022-11-18T01:47:42;99028.34;;;6.52;100.00
28683;BME280;15862;43.062;25.626;2022-11-18T01:50:09;99053.38;;;6.61;100.00
28683;BME280;15862;43.062;25.626;2022-11-18T01:52:38;99035.97;;;6.41;100.00
28683;BME280;15862;43.062;25.626;2022-11-18T01:55:16;99039.88;;;6.46;100.00
28683;BME280;15862;43.062;25.626;2022-11-18T01:57:45;99044.50;;;6.41;100.00
28683;BME280;15862;43.062;25.626;2022-11-18T02:00:12;99040.63;;;6.36;100.00
28683;BME280;15862;43.062;25.626;2022-11-18T02:02:38;99045.63;;;6.37;100.00
28683;BME280;15862;43.062;25.626;2022-11-18T02:05:05;99043.91;;;6.38;100.00
28683;BME280;15862;43.062;25.626;2022-11-18T02:07:34;99041.34;;;6.38;100.00
28683;BME280;15862;43.062;25.626;2022-11-18T02:10:03;99054.66;;;6.43;100.00
28683;BME280;15862;43.062;25.626;2022-11-18T02:12:30;99036.91;;;6.40;100.00
28683;BME280;15862;43.062;25.626;2022-11-18T02:14:56;99016.97;;;6.20;100.00
28683;BME280;15862;43.062;25.626;2022-11-18T02:17:45;99023.53;;;6.24;100.00
28683;BME280;15862;43.062;25.626;2022-11-18T02:30:57;99031.16;;;6.13;100.00
28683;BME280;15862;43.062;25.626;2022-11-18T02:33:25;99030.84;;;6.17;100.00
28683;BME280;15862;43.062;25.626;2022-11-18T02:36:07;99029.63;;;6.10;100.00
28683;BME280;15862;43.062;25.626;2022-11-18T02:38:45;99036.91;;;6.04;100.00
28683;BME280;15862;43.062;25.626;2022-11-18T02:41:18;99047.28;;;6.03;100.00
28683;BME280;15862;43.062;25.626;2022-11-18T02:43:48;99037.75;;;6.05;100.00
28683;BME280;15862;43.062;25.626;2022-11-18T02:46:20;99041.53;;;5.99;100.00
28683;BME280;15862;43.062;25.626;2022-11-18T02:48:49;99040.41;;;6.03;100.00
28683;BME280;15862;43.062;25.626;2022-11-18T02:51:23;99048.38;;;6.11;100.00
28683;BME280;15862;43.062;25.626;2022-11-18T02:53:50;99045.31;;;6.06;100.00
28683;BME280;15862;43.062;25.626;2022-11-18T02:56:18;99050.25;;;5.97;100.00
28683;BME280;15862;43.062;25.626;2022-11-18T02:58:45;99042.69;;;5.95;100.00
28683;BME280;15862;43.062;25.626;2022-11-18T03:01:20;99049.66;;;5.93;100.00
28683;BME280;15862;43.062;25.626;2022-11-18T03:03:47;99048.72;;;5.94;100.00
28683;BME280;15862;43.062;25.626;2022-11-18T03:06:29;99033.50;;;5.80;100.00
28683;BME280;15862;43.062;25.626;2022-11-18T03:25:18;99057.25;;;5.82;100.00
28683;BME280;15862;43.062;25.626;2022-11-18T03:28:06;99058.19;;;5.81;100.00
28683;BME280;15862;43.062;25.626;2022-11-18T03:30:35;99060.75;;;5.81;100.00
28683;BME280;15862;43.062;25.626;2022-11-18T03:33:10;99046.19;;;5.82;100.00
28683;BME280;15862;43.062;25.626;2022-11-18T03:35:38;99059.72;;;5.84;100.00
28683;BME280;15862;43.062;25.626;2022-11-18T03:38:10;99030.91;;;5.68;100.00
28683;BME280;15862;43.062;25.626;2022-11-18T03:40:38;99052.53;;;5.76;100.00
28683;BME280;15862;43.062;25.626;2022-11-18T03:43:15;99057.34;;;5.81;100.00
28683;BME280;15862;43.062;25.626;2022-11-18T03:45:48;99041.06;;;5.82;100.00
28683;BME280;15862;43.062;25.626;2022-11-18T03:48:17;99023.81;;;5.71;100.00
28683;BME280;15862;43.062;25.626;2022-11-18T03:51:01;99037.56;;;5.70;100.00
28683;BME280;15862;43.062;25.626;2022-11-18T03:53:32;99042.28;;;5.76;100.00
28683;BME280;15862;43.062;25.626;2022-11-18T03:56:07;99051.50;;;5.79;100.00
28683;BME280;15862;43.062;25.626;2022-11-18T04:01:13;99055.81;;;5.78;100.00
28683;BME280;15862;43.062;25.626;2022-11-18T04:03:41;99039.50;;;5.67;100.00
28683;BME280;15862;43.062;25.626;2022-11-18T04:06:24;99053.41;;;5.75;100.00
28683;BME280;15862;43.062;25.626;2022-11-18T04:08:56;99062.38;;;5.82;100.00
28683;BME280;15862;43.062;25.626;2022-11-18T04:11:26;99062.06;;;5.87;100.00
28683;BME280;15862;43.062;25.626;2022-11-18T04:14:13;99053.34;;;5.89;100.00
28683;BME280;15862;43.062;25.626;2022-11-18T04:16:41;99053.97;;;5.80;100.00
28683;BME280;15862;43.062;25.626;2022-11-18T04:19:06;99059.91;;;5.81;100.00
28683;BME280;15862;43.062;25.626;2022-11-18T04:21:32;99059.31;;;5.77;100.00
28683;BME280;15862;43.062;25.626;2022-11-18T04:23:57;99058.97;;;5.69;100.00
28683;BME280;15862;43.062;25.626;2022-11-18T04:26:23;99061.94;;;5.76;100.00
28683;BME280;15862;43.062;25.626;2022-11-18T04:28:48;99065.34;;;5.76;100.00
28683;BME280;15862;43.062;25.626;2022-11-18T04:31:13;99068.09;;;5.73;100.00
28683;BME280;15862;43.062;25.626;2022-11-18T04:33:39;99057.44;;;5.67;100.00
28683;BME280;15862;43.062;25.626;2022-11-18T04:36:04;99051.69;;;5.63;100.00
28683;BME280;15862;43.062;25.626;2022-11-18T04:38:30;99049.25;;;5.62;100.00
28683;BME280;15862;43.062;25.626;2022-11-18T04:40:55;99061.75;;;5.66;100.00
28683;BME280;15862;43.062;25.626;2022-11-18T04:43:21;99070.97;;;5.69;100.00
28683;BME280;15862;43.062;25.626;2022-11-18T04:45:46;99067.00;;;5.77;100.00
28683;BME280;15862;43.062;25.626;2022-11-18T04:48:13;99070.78;;;5.84;100.00
28683;BME280;15862;43.062;25.626;2022-11-18T04:50:38;99064.13;;;5.82;100.00
28683;BME280;15862;43.062;25.626;2022-11-18T04:53:04;99077.53;;;5.85;100.00
28683;BME280;15862;43.062;25.626;2022-11-18T04:55:29;99068.09;;;5.86;100.00
28683;BME280;15862;43.062;25.626;2022-11-18T04:57:55;99049.78;;;5.79;100.00
28683;BME280;15862;43.062;25.626;2022-11-18T05:00:20;99072.00;;;5.91;100.00
28683;BME280;15862;43.062;25.626;2022-11-18T05:02:47;99072.00;;;5.91;100.00
28683;BME280;15862;43.062;25.626;2022-11-18T05:05:13;99069.94;;;5.96;100.00
28683;BME280;15862;43.062;25.626;2022-11-18T05:07:38;99071.38;;;6.00;100.00
28683;BME280;15862;43.062;25.626;2022-11-18T05:10:04;99071.97;;;6.04;100.00
28683;BME280;15862;43.062;25.626;2022-11-18T05:12:30;99073.75;;;6.03;100.00
28683;BME280;15862;43.062;25.626;2022-11-18T05:15:14;99065.31;;;6.01;100.00
28683;BME280;15862;43.062;25.626;2022-11-18T05:17:39;99067.47;;;6.07;100.00
28683;BME280;15862;43.062;25.626;2022-11-18T05:20:05;99081.63;;;6.12;100.00
28683;BME280;15862;43.062;25.626;2022-11-18T05:22:31;99089.59;;;6.20;100.00
28683;BME280;15862;43.062;25.626;2022-11-18T05:24:56;99087.13;;;6.19;100.00
28683;BME280;15862;43.062;25.626;2022-11-18T05:27:22;99091.56;;;6.17;100.00
28683;BME280;15862;43.062;25.626;2022-11-18T05:29:47;99088.66;;;6.21;100.00
28683;BME280;15862;43.062;25.626;2022-11-18T05:32:13;99081.59;;;6.25;100.00
28683;BME280;15862;43.062;25.626;2022-11-18T05:34:40;99089.28;;;6.25;100.00
28683;BME280;15862;43.062;25.626;2022-11-18T05:37:06;99089.78;;;6.30;100.00
28683;BME280;15862;43.062;25.626;2022-11-18T05:39:32;99080.00;;;6.35;100.00
28683;BME280;15862;43.062;25.626;2022-11-18T05:41:58;99089.22;;;6.37;100.00
28683;BME280;15862;43.062;25.626;2022-11-18T05:44:41;99089.78;;;6.30;100.00
28683;BME280;15862;43.062;25.626;2022-11-18T05:47:07;99096.59;;;6.42;100.00
28683;BME280;15862;43.062;25.626;2022-11-18T05:49:32;99101.41;;;6.46;100.00
28683;BME280;15862;43.062;25.626;2022-11-18T05:51:58;99101.38;;;6.59;100.00
28683;BME280;15862;43.062;25.626;2022-11-18T05:54:24;99104.41;;;6.76;100.00
28683;BME280;15862;43.062;25.626;2022-11-18T05:56:49;99111.22;;;6.88;100.00
28683;BME280;15862;43.062;25.626;2022-11-18T05:59:15;99118.38;;;6.95;100.00
28683;BME280;15862;43.062;25.626;2022-11-18T06:01:54;99115.19;;;7.15;100.00
28683;BME280;15862;43.062;25.626;2022-11-18T06:04:41;99119.81;;;7.23;100.00
28683;BME280;15862;43.062;25.626;2022-11-18T06:07:33;99130.31;;;7.31;100.00
28683;BME280;15862;43.062;25.626;2022-11-18T06:10:00;99114.47;;;7.37;100.00
28683;BME280;15862;43.062;25.626;2022-11-18T06:12:29;99112.97;;;7.45;100.00
28683;BME280;15862;43.062;25.626;2022-11-18T06:15:01;99113.75;;;7.69;100.00
28683;BME280;15862;43.062;25.626;2022-11-18T06:17:35;99086.03;;;7.61;100.00
28683;BME280;15862;43.062;25.626;2022-11-18T06:20:04;99086.41;;;7.68;100.00
28683;BME280;15862;43.062;25.626;2022-11-18T06:22:30;99088.03;;;7.80;100.00
28683;BME280;15862;43.062;25.626;2022-11-18T06:24:55;99079.84;;;7.75;100.00
28683;BME280;15862;43.062;25.626;2022-11-18T06:27:21;99104.16;;;7.93;100.00
28683;BME280;15862;43.062;25.626;2022-11-18T06:29:46;99094.63;;;8.17;100.00
28683;BME280;15862;43.062;25.626;2022-11-18T06:32:11;99090.41;;;8.27;100.00
28683;BME280;15862;43.062;25.626;2022-11-18T06:34:37;99079.84;;;8.08;100.00
28683;BME280;15862;43.062;25.626;2022-11-18T06:37:17;99094.97;;;8.45;100.00
28683;BME280;15862;43.062;25.626;2022-11-18T06:39:42;99106.94;;;8.77;100.00
28683;BME280;15862;43.062;25.626;2022-11-18T06:42:08;99076.41;;;9.04;100.00
28683;BME280;15862;43.062;25.626;2022-11-18T06:44:33;99070.34;;;8.94;100.00
28683;BME280;15862;43.062;25.626;2022-11-18T06:46:59;99068.25;;;9.19;100.00
28683;BME280;15862;43.062;25.626;2022-11-18T06:49:26;99056.03;;;9.83;100.00
28683;BME280;15862;43.062;25.626;2022-11-18T06:51:52;99047.06;;;10.46;100.00
28683;BME280;15862;43.062;25.626;2022-11-18T06:54:18;99064.84;;;11.81;100.00
28683;BME280;15862;43.062;25.626;2022-11-18T06:56:44;99056.13;;;13.75;100.00
28683;BME280;15862;43.062;25.626;2022-11-18T06:59:09;99007.19;;;15.58;100.00
28683;BME280;15862;43.062;25.626;2022-11-18T07:01:37;98977.50;;;17.41;100.00
28683;BME280;15862;43.062;25.626;2022-11-18T07:04:03;98978.25;;;18.42;87.79
28683;BME280;15862;43.062;25.626;2022-11-18T07:06:31;98976.28;;;19.07;78.47
28683;BME280;15862;43.062;25.626;2022-11-18T07:09:00;98981.34;;;19.90;66.36
28683;BME280;15862;43.062;25.626;2022-11-18T07:11:26;98978.69;;;20.77;55.64
28683;BME280;15862;43.062;25.626;2022-11-18T07:13:52;98965.19;;;21.19;52.05
28683;BME280;15862;43.062;25.626;2022-11-18T07:16:20;98976.28;;;21.53;50.13
28683;BME280;15862;43.062;25.626;2022-11-18T07:18:46;98965.94;;;21.77;48.44
28683;BME280;15862;43.062;25.626;2022-11-18T07:21:15;98974.28;;;22.37;46.81
28683;BME280;15862;43.062;25.626;2022-11-18T07:23:41;98974.75;;;22.96;44.53
28683;BME280;15862;43.062;25.626;2022-11-18T07:26:07;98967.16;;;22.75;45.51
28683;BME280;15862;43.062;25.626;2022-11-18T07:28:33;98961.66;;;23.98;41.92
28683;BME280;15862;43.062;25.626;2022-11-18T07:31:07;98966.34;;;24.62;40.52
28683;BME280;15862;43.062;25.626;2022-11-18T07:33:34;98972.66;;;25.42;39.10
28683;BME280;15862;43.062;25.626;2022-11-18T07:36:02;98956.16;;;26.09;37.44
28683;BME280;15862;43.062;25.626;2022-11-18T07:38:29;98942.81;;;26.71;36.36
28683;BME280;15862;43.062;25.626;2022-11-18T07:41:01;98952.69;;;26.75;37.15
28683;BME280;15862;43.062;25.626;2022-11-18T07:43:26;98945.09;;;27.44;35.50
28683;BME280;15862;43.062;25.626;2022-11-18T07:45:52;98934.00;;;27.31;35.03
28683;BME280;15862;43.062;25.626;2022-11-18T07:48:17;98945.66;;;28.22;34.00
28683;BME280;15862;43.062;25.626;2022-11-18T07:51:08;98919.81;;;27.75;35.07
28683;BME280;15862;43.062;25.626;2022-11-18T07:53:34;98928.47;;;28.08;34.06
28683;BME280;15862;43.062;25.626;2022-11-18T07:56:00;98925.88;;;28.34;33.53
28683;BME280;15862;43.062;25.626;2022-11-18T07:58:25;98921.22;;;28.72;33.59
28683;BME280;15862;43.062;25.626;2022-11-18T08:00:51;98917.69;;;29.25;32.67
28683;BME280;15862;43.062;25.626;2022-11-18T08:03:16;98900.47;;;28.74;33.89
28683;BME280;15862;43.062;25.626;2022-11-18T08:05:42;98917.56;;;28.52;34.16
28683;BME280;15862;43.062;25.626;2022-11-18T08:08:07;98897.19;;;29.25;33.24
28683;BME280;15862;43.062;25.626;2022-11-18T08:10:33;98903.44;;;29.09;33.06
28683;BME280;15862;43.062;25.626;2022-11-18T08:12:58;98899.97;;;28.03;34.45
28683;BME280;15862;43.062;25.626;2022-11-18T08:15:24;98893.25;;;25.76;38.51
28683;BME280;15862;43.062;25.626;2022-11-18T08:17:49;98908.13;;;24.68;41.35
28683;BME280;15862;43.062;25.626;2022-11-18T08:20:15;98901.09;;;24.03;42.64
28683;BME280;15862;43.062;25.626;2022-11-18T08:22:41;98907.03;;;23.99;42.56
28683;BME280;15862;43.062;25.626;2022-11-18T08:25:07;98898.31;;;24.98;41.99
28683;BME280;15862;43.062;25.626;2022-11-18T08:27:32;98891.38;;;24.74;41.61
28683;BME280;15862;43.062;25.626;2022-11-18T08:29:58;98894.78;;;24.52;41.03
28683;BME280;15862;43.062;25.626;2022-11-18T08:32:24;98890.88;;;23.53;43.13
28683;BME280;15862;43.062;25.626;2022-11-18T08:34:50;98886.53;;;22.99;46.21
28683;BME280;15862;43.062;25.626;2022-11-18T08:37:15;98891.91;;;22.31;48.86
28683;BME280;15862;43.062;25.626;2022-11-18T08:39:41;98887.38;;;21.24;53.89
28683;BME280;15862;43.062;25.626;2022-11-18T08:42:08;98878.31;;;20.88;57.83
28683;BME280;15862;43.062;25.626;2022-11-18T08:44:34;98874.47;;;22.23;52.12
28683;BME280;15862;43.062;25.626;2022-11-18T08:47:00;98882.25;;;24.47;46.39
28683;BME280;15862;43.062;25.626;2022-11-18T08:49:26;98885.63;;;26.19;42.88
28683;BME280;15862;43.062;25.626;2022-11-18T08:51:51;98873.75;;;27.86;38.77
28683;BME280;15862;43.062;25.626;2022-11-18T08:54:16;98866.16;;;29.04;36.31
28683;BME280;15862;43.062;25.626;2022-11-18T08:56:42;98871.69;;;30.66;33.93
28683;BME280;15862;43.062;25.626;2022-11-18T08:59:07;98865.56;;;31.93;31.68
28683;BME280;15862;43.062;25.626;2022-11-18T09:01:35;98853.59;;;33.06;31.24
28683;BME280;15862;43.062;25.626;2022-11-18T09:04:02;98854.78;;;33.93;29.08
28683;BME280;15862;43.062;25.626;2022-11-18T09:06:27;98844.81;;;35.04;28.84
28683;BME280;15862;43.062;25.626;2022-11-18T09:08:53;98847.06;;;34.97;28.41
28683;BME280;15862;43.062;25.626;2022-11-18T09:11:22;98824.94;;;35.45;27.64
28683;BME280;15862;43.062;25.626;2022-11-18T09:13:52;98817.34;;;36.01;26.71
28683;BME280;15862;43.062;25.626;2022-11-18T09:16:17;98810.41;;;37.09;26.52
28683;BME280;15862;43.062;25.626;2022-11-18T09:18:43;98803.75;;;37.46;25.85
28683;BME280;15862;43.062;25.626;2022-11-18T09:21:08;98799.00;;;37.12;26.07
28683;BME280;15862;43.062;25.626;2022-11-18T09:23:36;98785.19;;;37.14;25.47
28683;BME280;15862;43.062;25.626;2022-11-18T09:26:07;98788.69;;;37.45;25.58
28683;BME280;15862;43.062;25.626;2022-11-18T09:28:33;98778.63;;;36.10;26.96
28683;BME280;15862;43.062;25.626;2022-11-18T09:31:03;98769.28;;;36.30;26.44
28683;BME280;15862;43.062;25.626;2022-11-18T09:33:29;98766.94;;;36.80;25.69
28683;BME280;15862;43.062;25.626;2022-11-18T09:35:54;98757.91;;;37.15;25.87
28683;BME280;15862;43.062;25.626;2022-11-18T09:38:20;98744.53;;;36.71;26.15
28683;BME280;15862;43.062;25.626;2022-11-18T09:46:27;98733.81;;;37.74;25.70
28683;BME280;15862;43.062;25.626;2022-11-18T09:49:02;98717.03;;;37.86;25.38
28683;BME280;15862;43.062;25.626;2022-11-18T09:51:45;98718.41;;;38.42;25.97
28683;BME280;15862;43.062;25.626;2022-11-18T09:56:46;98712.75;;;39.47;24.78
28683;BME280;15862;43.062;25.626;2022-11-18T09:59:13;98710.38;;;39.46;24.72
28683;BME280;15862;43.062;25.626;2022-11-18T10:01:40;98703.78;;;38.89;25.05
28683;BME280;15862;43.062;25.626;2022-11-18T10:04:12;98681.16;;;38.65;25.63
28683;BME280;15862;43.062;25.626;2022-11-18T10:06:39;98685.25;;;38.79;26.16
28683;BME280;15862;43.062;25.626;2022-11-18T10:11:42;98674.94;;;39.10;24.82
28683;BME280;15862;43.062;25.626;2022-11-18T10:14:17;98668.00;;;38.92;26.14
28683;BME280;15862;43.062;25.626;2022-11-18T10:19:45;98641.13;;;39.45;24.40
28683;BME280;15862;43.062;25.626;2022-11-18T10:22:36;98666.19;;;40.47;24.00
28683;BME280;15862;43.062;25.626;2022-11-18T10:25:11;98652.53;;;40.11;23.34
28683;BME280;15862;43.062;25.626;2022-11-18T10:27:40;98651.38;;;40.12;23.04
28683;BME280;15862;43.062;25.626;2022-11-18T10:30:16;98634.47;;;40.72;23.13
28683;BME280;15862;43.062;25.626;2022-11-18T10:33:03;98629.91;;;39.95;23.57
28683;BME280;15862;43.062;25.626;2022-11-18T10:35:40;98620.69;;;40.20;23.17
28683;BME280;15862;43.062;25.626;2022-11-18T10:40:43;98583.84;;;40.52;21.28
28683;BME280;15862;43.062;25.626;2022-11-18T10:43:10;98587.28;;;39.84;21.53
28683;BME280;15862;43.062;25.626;2022-11-18T10:45:37;98576.38;;;39.60;21.95
28683;BME280;15862;43.062;25.626;2022-11-18T10:50:43;98578.25;;;40.24;20.36
28683;BME280;15862;43.062;25.626;2022-11-18T10:53:32;98578.56;;;39.99;21.02
28683;BME280;15862;43.062;25.626;2022-11-18T10:56:06;98574.25;;;39.25;22.09
28683;BME280;15862;43.062;25.626;2022-11-18T10:58:40;98573.09;;;38.56;22.05
28683;BME280;15862;43.062;25.626;2022-11-18T11:01:23;98563.66;;;37.62;22.60
28683;BME280;15862;43.062;25.626;2022-11-18T11:08:54;98552.72;;;37.00;23.52
28683;BME280;15862;43.062;25.626;2022-11-18T11:11:41;98540.19;;;37.12;23.42
28683;BME280;15862;43.062;25.626;2022-11-18T11:16:44;98532.31;;;36.52;23.83
28683;BME280;15862;43.062;25.626;2022-11-18T11:19:11;98533.22;;;35.56;24.08
28683;BME280;15862;43.062;25.626;2022-11-18T11:21:38;98535.56;;;34.79;25.18
28683;BME280;15862;43.062;25.626;2022-11-18T11:24:11;98536.06;;;35.51;24.06
28683;BME280;15862;43.062;25.626;2022-11-18T11:27:32;98534.97;;;34.55;24.88
28683;BME280;15862;43.062;25.626;2022-11-18T11:35:22;98524.25;;;32.12;28.19
28683;BME280;15862;43.062;25.626;2022-11-18T11:37:52;98520.44;;;31.62;28.51
28683;BME280;15862;43.062;25.626;2022-11-18T11:41:21;98517.84;;;31.52;28.67
28683;BME280;15862;43.062;25.626;2022-11-18T11:46:22;98508.78;;;29.09;32.20
28683;BME280;15862;43.062;25.626;2022-11-18T11:49:20;98510.00;;;30.25;30.83
28683;BME280;15862;43.062;25.626;2022-11-18T11:51:54;98510.41;;;29.54;31.16
28683;BME280;15862;43.062;25.626;2022-11-18T12:04:49;98516.72;;;27.45;34.57
28683;BME280;15862;43.062;25.626;2022-11-18T12:07:27;98522.44;;;26.37;36.82
28683;BME280;15862;43.062;25.626;2022-11-18T12:10:22;98522.53;;;26.42;36.72
28683;BME280;15862;43.062;25.626;2022-11-18T12:18:39;98504.75;;;25.83;37.55
28683;BME280;15862;43.062;25.626;2022-11-18T12:21:06;98510.16;;;24.16;41.07
28683;BME280;15862;43.062;25.626;2022-11-18T12:23:32;98507.88;;;23.40;42.98
28683;BME280;15862;43.062;25.626;2022-11-18T12:26:10;98499.22;;;23.10;44.98
28683;BME280;15862;43.062;25.626;2022-11-18T12:28:39;98511.59;;;22.80;45.45
28683;BME280;15862;43.062;25.626;2022-11-18T12:33:52;98511.38;;;22.34;48.19
28683;BME280;15862;43.062;25.626;2022-11-18T12:36:38;98503.84;;;22.20;48.58
28683;BME280;15862;43.062;25.626;2022-11-18T12:44:38;98500.38;;;21.84;51.97
28683;BME280;15862;43.062;25.626;2022-11-18T12:47:12;98509.69;;;21.62;53.57
28683;BME280;15862;43.062;25.626;2022-11-18T12:54:54;98487.78;;;21.19;56.46
28683;BME280;15862;43.062;25.626;2022-11-18T12:57:29;98497.09;;;21.15;57.23
28683;BME280;15862;43.062;25.626;2022-11-18T12:59:55;98489.19;;;20.91;58.03
28683;BME280;15862;43.062;25.626;2022-11-18T13:02:26;98494.19;;;20.99;58.47
28683;BME280;15862;43.062;25.626;2022-11-18T13:05:04;98492.91;;;20.83;60.39
28683;BME280;15862;43.062;25.626;2022-11-18T13:07:32;98473.53;;;20.78;60.56
28683;BME280;15862;43.062;25.626;2022-11-18T13:10:23;98490.44;;;20.88;61.07
28683;BME280;15862;43.062;25.626;2022-11-18T13:12:52;98489.59;;;20.94;59.91
28683;BME280;15862;43.062;25.626;2022-11-18T13:15:18;98485.16;;;20.95;59.92
28683;BME280;15862;43.062;25.626;2022-11-18T13:18:12;98485.69;;;21.03;60.14
28683;BME280;15862;43.062;25.626;2022-11-18T13:20:40;98464.34;;;20.93;60.21
28683;BME280;15862;43.062;25.626;2022-11-18T13:26:03;98460.41;;;20.72;59.77
28683;BME280;15862;43.062;25.626;2022-11-18T13:33:46;98461.19;;;20.48;62.27
28683;BME280;15862;43.062;25.626;2022-11-18T13:36:18;98456.41;;;20.38;63.06
28683;BME280;15862;43.062;25.626;2022-11-18T13:38:59;98439.69;;;20.26;63.50
28683;BME280;15862;43.062;25.626;2022-11-18T13:41:26;98450.41;;;20.18;65.14
28683;BME280;15862;43.062;25.626;2022-11-18T13:46:47;98469.00;;;20.10;66.85
28683;BME280;15862;43.062;25.626;2022-11-18T13:49:16;98471.06;;;20.02;65.14
28683;BME280;15862;43.062;25.626;2022-11-18T13:51:43;98453.78;;;19.75;69.83
28683;BME280;15862;43.062;25.626;2022-11-18T13:54:13;98464.84;;;19.77;66.61
28683;BME280;15862;43.062;25.626;2022-11-18T13:56:40;98450.19;;;19.57;67.75
28683;BME280;15862;43.062;25.626;2022-11-18T13:59:15;98465.09;;;19.63;66.61
28683;BME280;15862;43.062;25.626;2022-11-18T14:01:43;98465.50;;;19.53;67.92
28683;BME280;15862;43.062;25.626;2022-11-18T14:04:21;98470.75;;;19.40;67.81
28683;BME280;15862;43.062;25.626;2022-11-18T14:06:48;98459.50;;;19.14;69.84
28683;BME280;15862;43.062;25.626;2022-11-18T14:09:27;98454.66;;;19.11;68.00
28683;BME280;15862;43.062;25.626;2022-11-18T14:12:03;98467.53;;;19.06;68.90
28683;BME280;15862;43.062;25.626;2022-11-18T14:14:37;98473.56;;;18.94;69.44
28683;BME280;15862;43.062;25.626;2022-11-18T14:19:44;98474.13;;;18.76;69.01
28683;BME280;15862;43.062;25.626;2022-11-18T14:22:14;98471.94;;;18.80;68.25
28683;BME280;15862;43.062;25.626;2022-11-18T14:24:41;98471.91;;;18.73;68.98
28683;BME280;15862;43.062;25.626;2022-11-18T14:30:29;98462.63;;;18.71;69.51
28683;BME280;15862;43.062;25.626;2022-11-18T14:33:24;98440.88;;;18.57;70.89
28683;BME280;15862;43.062;25.626;2022-11-18T14:36:13;98447.56;;;18.73;71.16
28683;BME280;15862;43.062;25.626;2022-11-18T14:38:44;98439.28;;;18.63;72.84
28683;BME280;15862;43.062;25.626;2022-11-18T14:41:12;98423.94;;;18.47;75.31
28683;BME280;15862;43.062;25.626;2022-11-18T14:43:38;98426.41;;;18.61;76.78
28683;BME280;15862;43.062;25.626;2022-11-18T14:46:15;98418.94;;;18.52;79.05
28683;BME280;15862;43.062;25.626;2022-11-18T14:48:43;98424.56;;;18.62;78.94
28683;BME280;15862;43.062;25.626;2022-11-18T14:51:15;98424.38;;;18.57;80.95
28683;BME280;15862;43.062;25.626;2022-11-18T14:53:42;98432.81;;;18.52;84.24
28683;BME280;15862;43.062;25.626;2022-11-18T14:56:18;98420.94;;;18.50;88.02